Time;durP1;ratioP1;P1;durP2;ratioP2;P2;SDS_P1;SDS_P2;PMS_P1;PMS_P2;Temp;Humidity;BMP_temperature;BMP_pressure;BME280_temperature;BME280_humidity;BME280_pressure;Samples;Min_cycle;Max_cycle;Signal;HPM_P1;HPM_P2
2022/09/12 00:04:33;;;;;;;59.75;34.55;;;;;;;9.61;100.00;101503.81;10340406;28;20046;-80
2022/09/12 00:09:33;;;;;;;62.42;31.15;;;;;;;9.68;100.00;101500.78;10342619;28;20501;-80
2022/09/12 00:14:34;;;;;;;57.35;32.25;;;;;;;9.75;100.00;101494.25;10291899;28;20180;-80
2022/09/12 00:19:34;;;;;;;58.65;30.52;;;;;;;9.71;100.00;101487.00;10306375;28;20462;-80
2022/09/12 00:24:35;;;;;;;64.03;37.10;;;;;;;9.71;100.00;101481.78;10300531;28;20082;-80
2022/09/12 00:29:35;;;;;;;54.20;30.10;;;;;;;9.62;100.00;101476.88;10322016;28;20042;-80
2022/09/12 00:34:36;;;;;;;67.30;33.42;;;;;;;9.65;100.00;101465.72;10316686;28;20049;-80
2022/09/12 00:39:36;;;;;;;54.97;30.20;;;;;;;9.48;100.00;101465.59;10307150;28;20042;-81
2022/09/12 00:44:37;;;;;;;61.88;34.05;;;;;;;9.40;100.00;101474.69;10297258;28;20114;-80
2022/09/12 00:49:59;;;;;;;72.47;37.15;;;;;;;9.37;100.00;101453.59;10323551;28;20064;-80
2022/09/12 00:55:27;;;;;;;66.73;30.90;;;;;;;9.32;100.00;101458.50;10287342;28;20502;-80
2022/09/12 01:00:28;;;;;;;68.63;36.58;;;;;;;9.31;100.00;101448.88;10305259;28;20545;-80
2022/09/12 01:05:29;;;;;;;48.58;30.42;;;;;;;9.20;100.00;101447.28;10294351;28;20042;-80
2022/09/12 01:10:29;;;;;;;64.00;33.55;;;;;;;9.25;100.00;101448.47;10292738;28;20121;-80
2022/09/12 01:15:30;;;;;;;54.05;28.08;;;;;;;9.17;100.00;101449.72;10328795;28;20045;-79
2022/09/12 01:20:52;;;;;;;55.78;31.85;;;;;;;9.08;100.00;101450.94;10322538;28;20046;-79
2022/09/12 01:26:08;;;;;;;54.20;33.27;;;;;;;9.04;100.00;101450.66;10322844;28;20045;-79
2022/09/12 01:31:33;;;;;;;60.35;32.00;;;;;;;9.01;100.00;101440.03;10329889;28;20046;-80
2022/09/12 01:36:39;;;;;;;54.88;31.92;;;;;;;9.02;100.00;101429.66;10295961;28;20044;-80
2022/09/12 01:41:56;;;;;;;65.13;35.58;;;;;;;9.01;100.00;101433.09;10308661;28;20475;-80
2022/09/12 01:46:59;;;;;;;66.28;36.25;;;;;;;9.00;100.00;101436.50;10285083;28;20038;-80
2022/09/12 01:52:03;;;;;;;61.10;33.08;;;;;;;9.02;100.00;101432.28;10299471;28;20049;-80
2022/09/12 01:57:09;;;;;;;56.22;33.55;;;;;;;8.93;100.00;101421.25;10309456;28;20430;-80
2022/09/12 02:02:21;;;;;;;62.45;33.15;;;;;;;8.95;100.00;101417.03;10294949;28;20042;-80
2022/09/12 02:07:26;;;;;;;77.28;40.42;;;;;;;8.85;100.00;101420.78;10320899;28;20049;-81
2022/09/12 02:12:30;;;;;;;82.18;39.83;;;;;;;8.91;100.00;101404.59;10285226;28;20051;-80
2022/09/12 02:17:31;;;;;;;94.82;47.90;;;;;;;8.93;100.00;101405.59;10281920;28;20052;-80
2022/09/12 02:22:31;;;;;;;89.35;46.80;;;;;;;8.86;100.00;101396.47;10301162;28;20156;-80
2022/09/12 02:27:36;;;;;;;95.43;46.70;;;;;;;8.87;100.00;101394.75;10294166;28;20088;-80
2022/09/12 02:32:43;;;;;;;93.82;45.13;;;;;;;8.85;100.00;101396.38;10263567;28;20058;-80
2022/09/12 02:38:18;;;;;;;84.50;43.92;;;;;;;8.86;100.00;101401.72;10281959;28;20039;-80
2022/09/12 02:43:19;;;;;;;104.97;46.72;;;;;;;8.76;100.00;101397.59;10298338;28;20490;-80
2022/09/12 02:48:25;;;;;;;101.90;46.45;;;;;;;8.86;100.00;101391.25;10295736;28;20038;-80
2022/09/12 02:53:25;;;;;;;105.90;44.83;;;;;;;8.81;100.00;101398.78;10301312;28;20035;-80
2022/09/12 02:58:27;;;;;;;80.70;42.45;;;;;;;8.73;100.00;101393.91;10348103;28;20037;-80
2022/09/12 03:03:42;;;;;;;94.78;46.17;;;;;;;8.72;100.00;101394.72;10292013;28;20045;-79
2022/09/12 03:09:11;;;;;;;93.57;46.38;;;;;;;8.74;100.00;101390.50;10303846;28;20068;-79
2022/09/12 03:14:19;;;;;;;97.93;46.17;;;;;;;8.72;100.00;101390.38;10366456;28;20048;-79
2022/09/12 03:19:46;;;;;;;72.50;39.33;;;;;;;8.66;100.00;101387.38;10285989;28;20054;-79
2022/09/12 03:25:01;;;;;;;102.03;38.25;;;;;;;8.71;100.00;101380.75;10325915;28;20056;-80
2022/09/12 03:30:04;;;;;;;72.45;35.33;;;;;;;8.71;100.00;101383.34;10307483;28;20050;-80
2022/09/12 03:35:05;;;;;;;81.03;38.63;;;;;;;8.69;100.00;101371.91;10309920;28;20039;-80
2022/09/12 03:40:06;;;;;;;80.57;42.67;;;;;;;8.66;100.00;101374.31;10283021;28;20491;-81
2022/09/12 03:45:07;;;;;;;80.15;42.38;;;;;;;8.61;100.00;101373.13;10306201;28;20035;-81
2022/09/12 03:50:08;;;;;;;74.82;38.33;;;;;;;8.59;100.00;101366.91;10303976;28;20520;-80
2022/09/12 03:55:08;;;;;;;84.65;43.13;;;;;;;8.63;100.00;101364.63;10313779;28;20107;-81
2022/09/12 04:00:09;;;;;;;87.47;42.15;;;;;;;8.57;100.00;101359.00;10287557;28;20547;-80
2022/09/12 04:05:10;;;;;;;103.00;43.63;;;;;;;8.58;100.00;101358.19;10331357;28;20042;-80
2022/09/12 04:10:10;;;;;;;86.88;45.97;;;;;;;8.57;100.00;101366.84;10322324;28;20142;-80
2022/09/12 04:15:11;;;;;;;88.40;43.03;;;;;;;8.56;100.00;101364.09;10342723;28;20602;-79
2022/09/12 04:20:11;;;;;;;89.60;43.10;;;;;;;8.53;100.00;101367.44;10302977;28;20149;-79
2022/09/12 04:25:12;;;;;;;101.78;44.47;;;;;;;8.58;100.00;101362.50;10292623;28;20066;-80
2022/09/12 04:30:13;;;;;;;98.70;42.50;;;;;;;8.58;100.00;101352.97;10312650;28;20493;-78
2022/09/12 04:35:13;;;;;;;99.20;45.33;;;;;;;8.64;100.00;101357.66;10319095;28;20129;-79
2022/09/12 04:40:14;;;;;;;95.25;45.50;;;;;;;8.63;100.00;101341.13;10341844;28;20038;-79
2022/09/12 04:45:15;;;;;;;73.75;36.45;;;;;;;8.54;100.00;101337.03;10302795;28;20053;-80
2022/09/12 04:50:16;;;;;;;74.57;35.17;;;;;;;8.50;100.00;101338.53;10309071;28;20068;-80
2022/09/12 04:55:16;;;;;;;106.90;42.13;;;;;;;8.56;100.00;101340.63;10296375;28;20069;-80
2022/09/12 05:00:20;;;;;;;84.32;36.92;;;;;;;8.64;100.00;101328.97;10304716;28;20064;-80
2022/09/12 05:05:21;;;;;;;85.00;41.08;;;;;;;8.63;100.00;101335.91;10317284;28;20051;-82
2022/09/12 05:10:22;;;;;;;84.95;42.53;;;;;;;8.67;100.00;101334.38;10312557;28;20574;-80
2022/09/12 05:15:23;;;;;;;105.63;40.15;;;;;;;8.72;100.00;101335.56;10314360;28;20041;-81
2022/09/12 05:20:25;;;;;;;68.07;33.63;;;;;;;8.76;100.00;101340.19;10316280;28;20046;-81
2022/09/12 05:25:26;;;;;;;79.57;39.75;;;;;;;8.88;100.00;101342.66;10318255;28;20042;-83
2022/09/12 05:30:27;;;;;;;92.32;44.60;;;;;;;9.02;100.00;101348.72;10327473;28;20092;-81
2022/09/12 05:35:27;;;;;;;112.53;51.80;;;;;;;9.15;100.00;101342.56;10323589;28;20482;-80
2022/09/12 05:40:28;;;;;;;115.55;54.38;;;;;;;9.37;100.00;101343.88;10326432;28;20038;-79
2022/09/12 05:45:28;;;;;;;114.00;47.38;;;;;;;9.58;100.00;101345.94;10285934;28;20055;-80
2022/09/12 05:50:29;;;;;;;90.82;41.05;;;;;;;9.71;100.00;101345.88;10291104;28;20041;-80
2022/09/12 05:55:30;;;;;;;85.28;42.75;;;;;;;9.90;100.00;101342.59;10304353;28;20038;-80
2022/09/12 06:00:31;;;;;;;94.35;40.88;;;;;;;10.08;100.00;101347.09;10339178;28;20062;-79
2022/09/12 06:05:32;;;;;;;112.03;48.70;;;;;;;10.60;100.00;101353.50;10319308;28;20050;-81
2022/09/12 06:10:34;;;;;;;110.70;50.65;;;;;;;10.69;100.00;101352.28;10334544;28;20098;-81
2022/09/12 06:15:34;;;;;;;109.82;51.15;;;;;;;10.89;100.00;101362.03;10364243;28;20039;-81
2022/09/12 06:20:35;;;;;;;96.65;49.80;;;;;;;10.97;100.00;101364.28;10348717;28;20495;-80
2022/09/12 06:25:36;;;;;;;85.47;44.40;;;;;;;11.05;100.00;101364.66;10335556;28;20044;-80
2022/09/12 06:30:36;;;;;;;69.15;39.67;;;;;;;11.24;100.00;101369.19;10348381;28;20069;-83
2022/09/12 06:35:37;;;;;;;90.05;45.38;;;;;;;11.38;100.00;101364.66;10324749;28;20113;-79
2022/09/12 06:40:43;;;;;;;94.38;47.53;;;;;;;11.50;100.00;101359.16;10340940;28;20395;-81
2022/09/12 06:45:50;;;;;;;84.28;44.63;;;;;;;11.97;100.00;101364.13;10342134;28;20045;-80
2022/09/12 06:51:04;;;;;;;79.45;41.72;;;;;;;12.43;100.00;101362.88;10324457;28;20093;-81
2022/09/12 06:56:05;;;;;;;67.50;37.38;;;;;;;13.12;100.00;101357.31;10308617;28;20031;-86
2022/09/12 07:01:11;;;;;;;59.70;36.38;;;;;;;13.06;100.00;101357.94;10306196;28;20045;-86
2022/09/12 07:06:12;;;;;;;54.78;29.60;;;;;;;12.96;100.00;101353.09;10331014;28;20049;-78
2022/09/12 07:11:22;;;;;;;66.47;38.07;;;;;;;12.83;100.00;101345.47;10340871;28;20048;-78
2022/09/12 07:16:23;;;;;;;62.15;32.60;;;;;;;12.75;100.00;101346.03;10328337;28;20046;-79
2022/09/12 07:21:24;;;;;;;51.05;29.00;;;;;;;12.66;100.00;101357.81;10325796;28;20046;-79
2022/09/12 07:26:27;;;;;;;51.20;32.38;;;;;;;12.72;100.00;101355.47;10335570;28;20041;-80
2022/09/12 07:31:28;;;;;;;58.28;35.90;;;;;;;14.77;100.00;101354.53;10320169;28;20061;-78
2022/09/12 07:36:30;;;;;;;32.03;22.83;;;;;;;16.65;100.00;101352.09;10337731;28;20039;-77
2022/09/12 07:41:32;;;;;;;32.08;21.50;;;;;;;19.66;82.99;101343.47;10327951;28;20088;-76
2022/09/12 07:46:34;;;;;;;25.92;16.35;;;;;;;21.34;67.54;101329.91;10309434;28;20536;-77
2022/09/12 07:51:34;;;;;;;30.42;20.27;;;;;;;19.75;71.62;101342.72;10303154;28;20030;-77
2022/09/12 07:56:35;;;;;;;30.08;19.40;;;;;;;18.46;77.21;101342.81;10303490;28;20462;-77
2022/09/12 08:01:36;;;;;;;27.73;19.95;;;;;;;20.45;72.65;101334.13;10304796;28;20408;-77
2022/09/12 08:06:36;;;;;;;25.60;17.50;;;;;;;22.77;60.86;101331.91;10321450;28;20053;-77
2022/09/12 08:11:37;;;;;;;22.13;16.67;;;;;;;23.86;57.13;101326.81;10322787;28;20495;-76
2022/09/12 08:16:37;;;;;;;25.87;18.87;;;;;;;23.73;56.44;101332.16;10337298;28;20035;-77
2022/09/12 08:21:38;;;;;;;22.00;17.13;;;;;;;24.03;56.71;101332.22;10322507;28;20119;-77
2022/09/12 08:26:38;;;;;;;22.00;17.57;;;;;;;24.16;56.19;101328.63;10336198;28;20062;-78
2022/09/12 08:31:41;;;;;;;23.53;17.33;;;;;;;22.99;61.23;101334.66;10321588;28;20030;-80
2022/09/12 08:36:41;;;;;;;21.95;16.40;;;;;;;23.89;57.37;101326.81;10321590;28;20062;-80
2022/09/12 08:41:46;;;;;;;21.60;15.13;;;;;;;24.67;55.00;101329.38;10303057;28;20113;-80
2022/09/12 08:47:06;;;;;;;15.65;13.60;;;;;;;25.55;51.98;101330.75;10336097;28;20074;-81
2022/09/12 08:52:22;;;;;;;19.20;14.18;;;;;;;26.38;47.94;101331.81;10319056;28;20039;-82
2022/09/12 08:57:23;;;;;;;16.75;13.27;;;;;;;26.60;48.02;101336.94;10319510;28;20048;-82
2022/09/12 09:02:23;;;;;;;13.50;11.07;;;;;;;27.34;48.52;101332.41;10313039;28;20045;-82
2022/09/12 09:07:51;;;;;;;14.87;13.03;;;;;;;26.95;45.79;101327.59;10332757;28;20041;-83
2022/09/12 09:18:46;;;;;;;16.70;12.50;;;;;;;27.67;43.02;101317.59;10321343;28;20046;-84
2022/09/12 09:23:49;;;;;;;18.30;12.18;;;;;;;29.04;42.28;101319.47;10319870;28;20038;-83
2022/09/12 09:28:53;;;;;;;15.27;11.10;;;;;;;28.42;43.08;101306.38;10316806;28;20042;-83
2022/09/12 09:33:54;;;;;;;15.10;10.07;;;;;;;28.29;41.91;101304.84;10303309;28;20043;-83
2022/09/12 09:39:03;;;;;;;11.13;8.93;;;;;;;29.51;40.02;101295.94;10326650;28;20119;-82
2022/09/12 09:44:04;;;;;;;11.95;8.45;;;;;;;30.44;36.23;101295.31;10335690;28;20122;-80
2022/09/12 09:49:05;;;;;;;9.75;8.15;;;;;;;30.98;36.17;101298.25;10332016;28;20125;-79
2022/09/12 09:54:12;;;;;;;8.73;7.10;;;;;;;31.09;34.69;101279.88;10334179;28;20399;-83
2022/09/12 09:59:17;;;;;;;29.20;22.48;;;;;;;30.44;37.47;101281.81;10332701;28;20434;-78
2022/09/12 10:04:29;;;;;;;11.93;8.88;;;;;;;30.37;38.48;101280.22;10322738;28;20046;-79
2022/09/12 10:09:33;;;;;;;11.27;8.43;;;;;;;30.44;37.27;101271.00;10335897;28;20497;-79
2022/09/12 10:14:37;;;;;;;10.68;6.82;;;;;;;30.98;34.97;101264.00;10347662;28;20468;-79
2022/09/12 10:19:39;;;;;;;8.88;6.65;;;;;;;31.40;34.38;101261.78;10353334;28;20053;-79
2022/09/12 10:24:40;;;;;;;10.10;6.93;;;;;;;31.31;33.87;101246.75;10347154;28;20043;-78
2022/09/12 10:29:46;;;;;;;8.00;5.57;;;;;;;31.48;36.55;101240.78;10320968;28;20081;-79
2022/09/12 10:34:47;;;;;;;9.88;5.63;;;;;;;30.43;36.75;101231.44;10336916;28;20047;-78
2022/09/12 10:40:06;;;;;;;10.27;5.27;;;;;;;31.99;33.48;101235.41;10307188;28;20038;-77
2022/09/12 10:45:29;;;;;;;5.10;4.60;;;;;;;31.60;33.27;101224.13;10308150;28;20068;-78
2022/09/12 10:50:38;;;;;;;;;;;;;;;31.42;32.94;101217.53;10348534;28;20057;-77
2022/09/12 10:55:39;;;;;;;13.80;11.80;;;;;;;30.87;36.07;101214.81;10334475;28;19921;-79
2022/09/12 11:00:41;;;;;;;11.85;5.32;;;;;;;31.60;35.90;101207.88;10324274;28;20046;-80
2022/09/12 11:05:51;;;;;;;6.97;5.65;;;;;;;32.04;31.56;101207.25;10322674;28;20042;-79
2022/09/12 11:11:28;;;;;;;8.43;6.18;;;;;;;31.04;34.67;101200.78;10327385;28;20042;-80
2022/09/12 11:16:38;;;;;;;9.48;5.88;;;;;;;30.87;34.39;101191.41;10321952;28;20133;-77
2022/09/12 11:21:46;;;;;;;10.23;7.18;;;;;;;31.05;34.92;101181.78;10327764;28;20042;-78
2022/09/12 11:27:10;;;;;;;7.88;5.35;;;;;;;30.87;36.16;101195.91;10344025;28;20128;-77
2022/09/12 11:32:47;;;;;;;7.57;5.05;;;;;;;31.56;32.70;101187.28;10320594;28;20610;-77
2022/09/12 11:38:07;;;;;;;6.63;4.38;;;;;;;31.16;33.19;101181.44;10325454;28;20057;-81
2022/09/12 11:43:11;;;;;;;11.77;9.70;;;;;;;31.23;34.17;101170.44;10306405;28;20050;-79
2022/09/12 11:48:15;;;;;;;6.82;5.15;;;;;;;30.89;35.05;101173.31;10330327;28;20062;-79
2022/09/12 11:53:22;;;;;;;5.95;5.13;;;;;;;31.44;32.51;101166.09;10317925;28;20046;-78
2022/09/12 11:58:24;;;;;;;9.23;5.85;;;;;;;32.16;32.36;101154.47;10309768;28;20038;-82
2022/09/12 12:03:27;;;;;;;5.72;4.03;;;;;;;32.20;31.52;101155.25;10295565;28;20073;-82
2022/09/12 12:08:29;;;;;;;6.45;5.32;;;;;;;32.15;32.54;101158.09;10295172;28;20499;-83
2022/09/12 12:13:56;;;;;;;5.55;3.85;;;;;;;31.86;32.82;101146.56;10308177;28;20117;-80
2022/09/12 12:18:58;;;;;;;5.03;4.15;;;;;;;31.95;31.74;101149.88;10345372;28;20084;-81
2022/09/12 12:24:07;;;;;;;4.63;3.50;;;;;;;31.89;30.77;101153.72;10319212;28;20046;-79
2022/09/12 12:29:17;;;;;;;6.65;4.35;;;;;;;30.86;34.01;101161.72;10320125;28;20085;-80
2022/09/12 12:34:42;;;;;;;12.02;5.82;;;;;;;31.34;32.22;101150.19;10321578;28;20050;-80
2022/09/12 12:39:42;;;;;;;13.65;4.88;;;;;;;31.42;32.50;101146.34;10331031;28;20088;-79
2022/09/12 12:44:43;;;;;;;7.57;5.43;;;;;;;32.42;30.86;101146.31;10320352;28;20041;-79
2022/09/12 12:49:50;;;;;;;8.37;4.57;;;;;;;31.71;32.19;101139.00;10319778;28;20537;-79
2022/09/12 12:54:53;;;;;;;8.85;5.05;;;;;;;31.95;32.55;101121.00;10319447;28;20054;-80
2022/09/12 13:00:05;;;;;;;5.95;4.38;;;;;;;31.12;33.81;101133.81;10302532;28;20486;-79
2022/09/12 13:05:19;;;;;;;12.23;4.80;;;;;;;31.38;31.48;101118.53;10319459;28;20040;-79
2022/09/12 13:10:27;;;;;;;5.75;4.10;;;;;;;31.61;32.37;101117.69;10301090;28;20038;-78
2022/09/12 13:15:46;;;;;;;9.95;5.25;;;;;;;30.64;34.77;101107.53;10303574;28;20042;-78
2022/09/12 13:20:53;;;;;;;6.15;4.20;;;;;;;31.16;32.52;101105.75;10301203;28;20106;-79
2022/09/12 13:25:55;;;;;;;9.02;5.05;;;;;;;30.47;33.38;101092.72;10316423;28;20081;-78
2022/09/12 13:31:00;;;;;;;12.43;3.97;;;;;;;30.38;33.88;101090.31;10317475;28;20026;-78
2022/09/12 13:36:04;;;;;;;8.05;4.30;;;;;;;29.20;35.19;101082.91;10316193;28;20556;-80
2022/09/12 13:41:28;;;;;;;9.43;3.50;;;;;;;29.65;35.64;101085.28;10316083;28;20035;-80
2022/09/12 13:46:32;;;;;;;5.75;3.42;;;;;;;29.49;36.73;101082.13;10317369;28;20058;-80
2022/09/12 13:51:33;;;;;;;7.22;3.97;;;;;;;29.54;36.53;101072.09;10334320;28;20168;-80
2022/09/12 13:56:34;;;;;;;5.32;4.15;;;;;;;30.35;34.36;101060.72;10356320;28;20452;-82
2022/09/12 14:01:39;;;;;;;149.73;45.93;;;;;;;30.36;36.20;101060.66;10340999;28;20041;-81
2022/09/12 14:06:45;;;;;;;10.13;3.05;;;;;;;30.39;34.52;101048.91;10339264;28;20418;-81
2022/09/12 14:11:45;;;;;;;4.68;3.45;;;;;;;30.03;36.40;101050.00;10275187;28;20486;-80
2022/09/12 14:16:46;;;;;;;7.27;3.87;;;;;;;29.66;36.78;101049.28;10311233;28;20060;-80
2022/09/12 14:21:47;;;;;;;6.90;4.07;;;;;;;28.66;37.10;101053.69;10357603;28;20120;-79
2022/09/12 14:26:48;;;;;;;4.80;3.70;;;;;;;28.20;41.46;101050.31;10326156;28;20513;-79
2022/09/12 14:32:01;;;;;;;4.47;3.35;;;;;;;27.98;37.75;101034.66;10309838;28;20498;-82
2022/09/12 14:37:04;;;;;;;6.50;4.05;;;;;;;27.68;42.90;101033.50;10353693;28;20042;-80
2022/09/12 14:42:14;;;;;;;6.00;3.50;;;;;;;27.32;46.22;101030.59;10323341;28;20033;-80
2022/09/12 14:47:19;;;;;;;8.82;3.30;;;;;;;27.60;48.56;101019.34;10339024;28;20046;-78
2022/09/12 14:52:33;;;;;;;6.03;2.75;;;;;;;28.37;46.63;101009.53;10341608;28;20108;-80
2022/09/12 14:57:34;;;;;;;6.75;3.10;;;;;;;28.49;39.03;101004.78;10359682;28;20390;-79
2022/09/12 15:02:34;;;;;;;6.37;2.83;;;;;;;27.94;39.45;101003.34;10358752;28;20041;-79
2022/09/12 15:07:55;;;;;;;3.03;2.60;;;;;;;27.58;46.34;100999.66;10340862;28;20124;-78
2022/09/12 15:13:04;;;;;;;5.47;3.17;;;;;;;26.42;43.06;100995.50;10359500;28;20068;-78
2022/09/12 15:18:05;;;;;;;15.70;9.77;;;;;;;26.09;50.39;100995.94;10336405;28;20039;-78
2022/09/12 15:23:09;;;;;;;7.67;5.77;;;;;;;25.62;50.79;100987.69;10343826;28;20398;-78
2022/09/12 15:28:16;;;;;;;4.55;2.78;;;;;;;26.03;45.58;100979.09;10333917;28;20042;-77
2022/09/12 15:33:18;;;;;;;4.30;3.88;;;;;;;26.26;45.05;100976.06;10320169;28;20064;-77
2022/09/12 15:38:18;;;;;;;4.85;3.63;;;;;;;25.54;48.03;100970.81;10302623;28;20041;-75
2022/09/12 15:43:20;;;;;;;5.93;3.67;;;;;;;24.84;51.22;100968.91;10339905;28;20406;-76
2022/09/12 15:48:20;;;;;;;;;;;;;;;24.32;57.05;100965.75;10299053;28;20046;-77
2022/09/12 15:53:21;;;;;;;8.27;4.38;;;;;;;24.16;61.95;100962.34;10317058;28;19933;-77
2022/09/12 15:58:21;;;;;;;4.83;3.57;;;;;;;23.94;59.51;100956.19;10318628;28;20128;-76
2022/09/12 16:03:24;;;;;;;4.70;3.10;;;;;;;23.67;59.46;100949.25;10322196;28;20069;-77
2022/09/12 16:08:24;;;;;;;5.90;3.97;;;;;;;23.36;67.06;100952.06;10318156;28;20546;-77
2022/09/12 16:13:25;;;;;;;7.23;4.37;;;;;;;22.95;68.53;100948.59;10326945;28;20031;-77
2022/09/12 16:18:26;;;;;;;10.83;4.33;;;;;;;22.59;72.68;100951.31;10303667;28;20113;-77
2022/09/12 16:23:27;;;;;;;12.45;4.95;;;;;;;22.32;69.22;100944.19;10317594;28;20061;-76
2022/09/12 16:28:27;;;;;;;7.33;3.80;;;;;;;21.98;66.17;100937.94;10316544;28;20665;-76
2022/09/12 16:33:28;;;;;;;6.05;4.45;;;;;;;21.75;69.71;100935.25;10317643;28;20125;-77
2022/09/12 16:38:29;;;;;;;9.30;4.27;;;;;;;21.44;75.54;100926.22;10298481;28;20466;-77
2022/09/12 16:43:30;;;;;;;6.10;3.75;;;;;;;21.14;72.95;100926.13;10298907;28;20050;-76
2022/09/12 16:48:31;;;;;;;14.35;3.70;;;;;;;20.89;75.90;100922.41;10302170;28;20050;-77
2022/09/12 16:53:33;;;;;;;5.70;3.25;;;;;;;20.55;76.38;100920.41;10316681;28;20120;-77
2022/09/12 16:58:34;;;;;;;5.85;3.60;;;;;;;20.25;81.09;100928.13;10316873;28;20058;-76
2022/09/12 17:03:35;;;;;;;6.88;4.13;;;;;;;19.79;80.50;100919.69;10315915;28;20125;-77
2022/09/12 17:08:37;;;;;;;5.07;3.90;;;;;;;19.44;82.48;100917.53;10318080;28;20402;-77
2022/09/12 17:13:38;;;;;;;8.63;4.20;;;;;;;19.07;84.59;100913.53;10333251;28;20046;-79
2022/09/12 17:18:38;;;;;;;8.40;4.10;;;;;;;18.71;86.46;100904.16;10311706;28;20592;-76
2022/09/12 17:23:39;;;;;;;8.38;4.55;;;;;;;18.31;87.48;100896.50;10290429;28;20158;-76
2022/09/12 17:28:40;;;;;;;5.32;3.80;;;;;;;18.07;93.34;100896.09;10272872;28;20035;-77
2022/09/12 17:33:41;;;;;;;6.57;4.78;;;;;;;17.69;90.42;100899.78;10299840;28;20049;-76
2022/09/12 17:38:43;;;;;;;6.50;4.00;;;;;;;17.43;90.71;100900.19;10314017;28;20038;-77
2022/09/12 17:43:49;;;;;;;7.57;4.80;;;;;;;17.26;93.65;100892.78;10312850;28;20054;-75
2022/09/12 17:48:52;;;;;;;6.53;4.88;;;;;;;17.09;92.92;100889.81;10342707;28;20441;-75
2022/09/12 17:54:08;;;;;;;6.18;4.30;;;;;;;17.00;93.41;100889.63;10329620;28;20046;-78
2022/09/12 17:59:12;;;;;;;8.57;5.32;;;;;;;16.78;96.96;100886.47;10334537;28;20125;-78
2022/09/12 18:04:12;;;;;;;6.45;4.43;;;;;;;16.59;95.82;100882.50;10316603;28;20038;-77
2022/09/12 18:09:16;;;;;;;12.32;5.90;;;;;;;16.44;96.65;100880.41;10316856;28;20054;-78
2022/09/12 18:14:17;;;;;;;8.95;5.18;;;;;;;16.31;98.70;100870.41;10299344;28;20626;-77
2022/09/12 18:19:18;;;;;;;11.23;6.85;;;;;;;16.16;100.00;100877.09;10314218;28;20085;-77
2022/09/12 18:24:18;;;;;;;8.10;5.15;;;;;;;15.93;100.00;100879.13;10328592;28;20486;-77
2022/09/12 18:29:19;;;;;;;7.45;4.78;;;;;;;15.82;100.00;100873.56;10318809;28;20034;-77
2022/09/12 18:34:20;;;;;;;7.25;5.32;;;;;;;15.79;100.00;100886.66;10322655;28;20065;-77
2022/09/12 18:39:23;;;;;;;7.07;4.82;;;;;;;15.70;100.00;100895.22;10322025;28;20138;-77
2022/09/12 18:44:24;;;;;;;9.18;5.88;;;;;;;15.66;100.00;100886.34;10338786;28;20042;-77
2022/09/12 18:49:24;;;;;;;12.95;5.43;;;;;;;15.50;100.00;100887.66;10328432;28;20121;-77
2022/09/12 18:54:25;;;;;;;9.73;6.72;;;;;;;15.57;100.00;100886.09;10324023;28;20046;-77
2022/09/12 18:59:25;;;;;;;9.48;5.18;;;;;;;15.46;100.00;100874.34;10323226;28;20431;-77
2022/09/12 19:04:26;;;;;;;12.15;7.10;;;;;;;15.37;100.00;100888.16;10322555;28;20458;-77
2022/09/12 19:09:27;;;;;;;12.48;7.57;;;;;;;15.19;100.00;100902.59;10326471;28;20038;-77
2022/09/12 19:14:29;;;;;;;14.52;6.38;;;;;;;15.07;100.00;100902.22;10337572;28;20096;-77
2022/09/12 19:19:29;;;;;;;14.20;5.55;;;;;;;15.01;100.00;100897.69;10322329;28;20170;-76
2022/09/12 19:24:30;;;;;;;6.82;5.05;;;;;;;15.04;100.00;100891.59;10330766;28;20035;-77
2022/09/12 19:29:31;;;;;;;9.13;6.20;;;;;;;14.98;100.00;100895.84;10323455;28;20054;-77
2022/09/12 19:34:31;;;;;;;9.38;6.45;;;;;;;15.04;100.00;100894.22;10322197;28;21447;-77
2022/09/12 19:39:32;;;;;;;12.60;6.95;;;;;;;15.11;100.00;100886.56;10326408;28;20130;-77
2022/09/12 19:44:32;;;;;;;8.70;6.13;;;;;;;15.17;100.00;100888.47;10333585;28;20130;-77
2022/09/12 19:49:33;;;;;;;11.00;6.15;;;;;;;15.18;100.00;100879.72;10340522;28;20061;-79
2022/09/12 19:54:33;;;;;;;9.05;6.53;;;;;;;15.10;100.00;100871.59;10340504;28;20045;-78
2022/09/12 19:59:34;;;;;;;10.68;6.20;;;;;;;15.00;100.00;100871.28;10340234;28;20056;-78
2022/09/12 20:04:35;;;;;;;11.30;6.60;;;;;;;14.93;100.00;100862.31;10341392;28;20050;-78
2022/09/12 20:09:36;;;;;;;8.90;7.13;;;;;;;14.80;100.00;100861.94;10338271;28;20041;-79
2022/09/12 20:14:37;;;;;;;9.52;6.05;;;;;;;14.75;100.00;100860.00;10340500;28;20026;-79
2022/09/12 20:19:37;;;;;;;11.40;8.07;;;;;;;14.58;100.00;100873.50;10339607;28;20042;-78
2022/09/12 20:24:38;;;;;;;9.10;6.82;;;;;;;14.50;100.00;100862.75;10352137;28;20376;-78
2022/09/12 20:29:38;;;;;;;10.02;7.93;;;;;;;14.46;100.00;100859.94;10322136;28;20109;-78
2022/09/12 20:34:39;;;;;;;19.13;8.50;;;;;;;14.33;100.00;100854.28;10320807;28;20044;-78
2022/09/12 20:39:40;;;;;;;13.32;6.93;;;;;;;14.32;100.00;100854.25;10361532;28;20419;-78
2022/09/12 20:44:40;;;;;;;15.00;7.75;;;;;;;14.24;100.00;100844.38;10342368;28;20068;-78
2022/09/12 20:49:41;;;;;;;9.65;7.38;;;;;;;14.22;100.00;100834.63;10321030;28;20064;-78
2022/09/12 20:54:41;;;;;;;13.40;8.35;;;;;;;14.19;100.00;100830.19;10324306;28;20129;-78
2022/09/12 20:59:42;;;;;;;14.30;7.95;;;;;;;14.16;100.00;100835.34;10334514;28;20047;-77
2022/09/12 21:04:42;;;;;;;20.95;7.57;;;;;;;14.10;100.00;100829.88;10322606;28;20038;-77
2022/09/12 21:09:43;;;;;;;12.60;8.10;;;;;;;14.07;100.00;100812.25;10361084;28;20048;-78
2022/09/12 21:14:44;;;;;;;13.18;9.25;;;;;;;14.02;100.00;100803.31;10359804;28;20061;-77
2022/09/12 21:19:44;;;;;;;13.85;7.85;;;;;;;13.98;100.00;100804.03;10348909;28;20103;-77
2022/09/12 21:24:45;;;;;;;16.80;9.85;;;;;;;13.90;100.00;100816.06;10319757;28;20121;-77
2022/09/12 21:29:45;;;;;;;15.40;9.05;;;;;;;13.84;100.00;100818.47;10333887;28;20046;-77
2022/09/12 21:34:46;;;;;;;10.85;8.27;;;;;;;13.67;100.00;100825.81;10319626;28;20069;-77
2022/09/12 21:39:47;;;;;;;11.93;9.43;;;;;;;13.53;100.00;100825.31;10334227;28;20538;-77
2022/09/12 21:44:47;;;;;;;10.82;8.48;;;;;;;13.54;100.00;100824.47;10337692;28;20048;-77
2022/09/12 21:49:48;;;;;;;21.27;12.00;;;;;;;13.58;100.00;100819.41;10359909;28;20060;-77
2022/09/12 21:54:48;;;;;;;12.30;8.45;;;;;;;13.60;100.00;100830.84;10334366;28;20125;-77
2022/09/12 21:59:49;;;;;;;15.88;10.75;;;;;;;13.56;100.00;100859.59;10319116;28;20121;-77
2022/09/12 22:04:49;;;;;;;15.75;9.77;;;;;;;13.53;100.00;100886.69;10347967;28;20386;-77
2022/09/12 22:09:50;;;;;;;19.80;11.23;;;;;;;13.54;100.00;100867.47;10365684;28;20486;-77
2022/09/12 22:14:50;;;;;;;14.90;10.55;;;;;;;13.57;100.00;100866.66;10328259;28;20150;-78
2022/09/12 22:19:51;;;;;;;19.80;12.63;;;;;;;13.58;100.00;100869.34;10327656;28;20050;-77
2022/09/12 22:24:52;;;;;;;21.17;11.65;;;;;;;13.66;100.00;100859.09;10361529;28;20058;-77
2022/09/12 22:29:52;;;;;;;25.80;12.98;;;;;;;13.68;100.00;100860.03;10366964;28;20062;-77
2022/09/12 22:34:53;;;;;;;18.20;12.30;;;;;;;13.71;100.00;100860.16;10346633;28;20121;-77
2022/09/12 22:39:53;;;;;;;18.88;12.80;;;;;;;13.76;100.00;100855.94;10327565;28;20382;-77
2022/09/12 22:44:54;;;;;;;21.60;11.70;;;;;;;13.90;100.00;100850.25;10346972;28;20038;-77
2022/09/12 22:49:54;;;;;;;18.27;13.60;;;;;;;13.88;100.00;100844.03;10366087;28;20073;-77
2022/09/12 22:54:56;;;;;;;18.27;11.98;;;;;;;13.84;100.00;100840.44;10344291;28;20110;-77
2022/09/12 22:59:56;;;;;;;15.13;10.73;;;;;;;13.84;100.00;100829.91;10326566;28;20034;-77
2022/09/12 23:04:57;;;;;;;18.23;11.68;;;;;;;13.75;100.00;100834.84;10345998;28;20227;-77